createdAt,value
2022-10-02T00:02:40.991Z,100.00
2022-10-02T00:06:11.376Z,100.00
2022-10-02T00:10:12.061Z,100.00
2022-10-02T00:14:05.277Z,100.00
2022-10-02T00:17:53.743Z,100.00
2022-10-02T00:21:44.772Z,100.00
2022-10-02T00:25:37.765Z,100.00
2022-10-02T00:29:20.608Z,100.00
2022-10-02T00:37:22.885Z,100.00
2022-10-02T00:40:51.890Z,100.00
2022-10-02T00:44:42.076Z,100.00
2022-10-02T00:48:58.509Z,100.00
2022-10-02T00:52:58.860Z,100.00
2022-10-02T01:00:26.276Z,100.00
2022-10-02T01:04:16.865Z,100.00
2022-10-02T01:07:44.225Z,100.00
2022-10-02T01:11:45.861Z,100.00
2022-10-02T01:15:36.315Z,100.00
2022-10-02T01:18:59.266Z,100.00
2022-10-02T01:22:54.680Z,100.00
2022-10-02T01:26:18.612Z,100.00
2022-10-02T01:30:17.714Z,100.00
2022-10-02T01:33:24.486Z,100.00
2022-10-02T01:37:08.903Z,100.00
2022-10-02T01:40:37.957Z,100.00
2022-10-02T01:44:23.504Z,100.00
2022-10-02T01:48:32.266Z,100.00
2022-10-02T01:52:24.209Z,100.00
2022-10-02T01:56:31.313Z,100.00
2022-10-02T02:00:08.807Z,100.00
2022-10-02T02:04:07.173Z,100.00
2022-10-02T02:07:46.307Z,100.00
2022-10-02T02:11:19.811Z,100.00
2022-10-02T02:15:05.281Z,100.00
2022-10-02T02:18:42.798Z,100.00
2022-10-02T02:22:34.395Z,100.00
2022-10-02T02:26:20.665Z,100.00
2022-10-02T02:30:05.093Z,100.00
2022-10-02T02:34:15.938Z,100.00
2022-10-02T02:37:40.588Z,100.00
2022-10-02T02:41:15.214Z,100.00
2022-10-02T02:45:21.283Z,98.68
2022-10-02T02:48:48.884Z,98.73
2022-10-02T02:52:23.147Z,98.92
2022-10-02T02:56:15.324Z,100.00
2022-10-02T03:03:31.019Z,100.00
2022-10-02T03:07:03.989Z,100.00
2022-10-02T03:10:52.653Z,100.00
2022-10-02T03:14:44.199Z,100.00
2022-10-02T03:18:17.035Z,100.00
2022-10-02T03:21:55.561Z,100.00
2022-10-02T03:25:40.299Z,100.00
2022-10-02T03:29:13.131Z,100.00
2022-10-02T03:32:53.743Z,100.00
2022-10-02T03:37:01.817Z,100.00
2022-10-02T03:41:13.729Z,100.00
2022-10-02T03:44:49.832Z,100.00
2022-10-02T03:48:27.326Z,100.00
2022-10-02T03:52:01.262Z,100.00
2022-10-02T03:55:40.987Z,100.00
2022-10-02T03:59:28.837Z,100.00
2022-10-02T04:03:01.510Z,100.00
2022-10-02T04:06:50.225Z,100.00
2022-10-02T04:10:14.049Z,100.00
2022-10-02T04:14:10.068Z,100.00
2022-10-02T04:17:59.011Z,100.00
2022-10-02T04:21:43.722Z,100.00
2022-10-02T04:25:21.557Z,100.00
2022-10-02T04:29:22.228Z,100.00
2022-10-02T04:33:26.379Z,100.00
2022-10-02T04:37:21.597Z,100.00
2022-10-02T04:41:55.802Z,100.00
2022-10-02T04:46:16.105Z,100.00
2022-10-02T04:50:02.264Z,100.00
2022-10-02T04:54:14.329Z,100.00
2022-10-02T04:58:09.977Z,100.00
2022-10-02T05:10:23.386Z,100.00
2022-10-02T05:18:45.606Z,100.00
2022-10-02T05:23:17.481Z,100.00
2022-10-02T05:26:48.358Z,100.00
2022-10-02T05:30:38.291Z,100.00
2022-10-02T05:34:16.055Z,100.00
2022-10-02T05:38:31.984Z,100.00
2022-10-02T05:42:14.875Z,100.00
2022-10-02T05:45:42.277Z,100.00
2022-10-02T05:49:35.148Z,100.00
2022-10-02T05:53:37.933Z,100.00
2022-10-02T05:57:33.631Z,98.75
2022-10-02T06:01:28.271Z,97.00
2022-10-02T06:05:55.743Z,95.98
2022-10-02T06:09:31.939Z,95.05
2022-10-02T06:13:13.298Z,92.78
2022-10-02T06:16:40.409Z,89.53
2022-10-02T06:20:38.259Z,87.55
2022-10-02T06:24:20.523Z,84.80
2022-10-02T06:27:59.806Z,82.92
2022-10-02T06:31:42.117Z,81.94
2022-10-02T06:36:09.437Z,79.02
2022-10-02T06:40:33.269Z,77.51
2022-10-02T06:48:26.136Z,74.43
2022-10-02T06:52:13.355Z,74.26
2022-10-02T06:56:14.628Z,73.34
2022-10-02T07:00:35.095Z,74.90
2022-10-02T07:13:04.565Z,72.21
2022-10-02T07:16:58.434Z,72.50
2022-10-02T07:21:28.743Z,72.45
2022-10-02T07:33:06.529Z,70.23
2022-10-02T07:41:32.804Z,67.28
2022-10-02T07:45:38.312Z,67.12
2022-10-02T07:49:49.048Z,68.14
2022-10-02T07:53:43.528Z,67.36
2022-10-02T07:57:46.462Z,67.67
2022-10-02T08:16:29.979Z,67.97
2022-10-02T08:19:53.182Z,69.70
2022-10-02T08:27:49.087Z,69.84
2022-10-02T08:31:17.086Z,70.70
2022-10-02T08:34:53.433Z,68.83
2022-10-02T08:38:37.790Z,68.05
2022-10-02T08:42:12.746Z,68.07
2022-10-02T08:45:54.390Z,67.84
2022-10-02T08:50:08.253Z,64.84
2022-10-02T08:54:00.633Z,64.73
2022-10-02T08:57:52.628Z,65.58
2022-10-02T09:02:03.646Z,61.67
2022-10-02T09:05:54.817Z,58.97
2022-10-02T09:09:41.082Z,59.19
2022-10-02T09:13:31.892Z,60.35
2022-10-02T09:17:21.756Z,55.39
2022-10-02T09:21:14.573Z,55.19
2022-10-02T09:25:11.405Z,53.98
2022-10-02T09:29:00.548Z,53.61
2022-10-02T09:32:57.865Z,51.59
2022-10-02T09:36:58.159Z,54.32
2022-10-02T09:40:55.154Z,55.44
2022-10-02T09:45:01.783Z,55.36
2022-10-02T09:48:51.380Z,55.79
2022-10-02T09:53:16.763Z,52.72
2022-10-02T09:57:06.128Z,55.14
2022-10-02T10:00:51.999Z,51.25
2022-10-02T10:05:04.403Z,50.74
2022-10-02T10:09:01.870Z,53.32
2022-10-02T10:13:10.115Z,51.44
2022-10-02T10:17:10.074Z,51.44
2022-10-02T10:21:14.946Z,52.66
2022-10-02T10:24:58.174Z,49.44
2022-10-02T10:28:44.192Z,49.50
2022-10-02T10:33:08.776Z,47.43
2022-10-02T10:37:16.548Z,46.54
2022-10-02T10:41:22.498Z,47.64
2022-10-02T10:45:25.239Z,48.29
2022-10-02T10:49:03.369Z,51.01
2022-10-02T10:52:55.100Z,51.29
2022-10-02T10:56:49.641Z,49.48
2022-10-02T11:00:44.083Z,51.76
2022-10-02T11:04:47.713Z,52.09
2022-10-02T11:08:43.323Z,53.74
2022-10-02T11:12:19.697Z,52.50
2022-10-02T11:16:13.339Z,51.74
2022-10-02T11:20:05.419Z,52.02
2022-10-02T11:24:06.578Z,53.46
2022-10-02T11:27:57.530Z,55.22
2022-10-02T11:31:57.852Z,52.96
2022-10-02T11:35:48.445Z,51.77
2022-10-02T11:40:01.677Z,49.58
2022-10-02T11:43:48.404Z,49.89
2022-10-02T11:47:58.418Z,52.86
2022-10-02T11:51:48.519Z,50.76
2022-10-02T11:56:22.875Z,52.21
2022-10-02T12:00:13.464Z,53.86
2022-10-02T12:04:28.264Z,52.99
2022-10-02T12:08:53.784Z,54.22
2022-10-02T12:12:51.630Z,54.74
2022-10-02T12:16:34.268Z,54.77
2022-10-02T12:20:38.387Z,56.66
2022-10-02T12:24:35.232Z,59.46
2022-10-02T12:28:28.862Z,61.58
2022-10-02T12:32:08.127Z,63.51
2022-10-02T12:35:43.540Z,63.29
2022-10-02T12:39:35.312Z,65.19
2022-10-02T12:43:32.579Z,64.70
2022-10-02T12:47:22.818Z,64.43
2022-10-02T12:50:55.539Z,65.07
2022-10-02T12:54:33.917Z,64.25
2022-10-02T12:58:27.079Z,63.96
2022-10-02T13:02:49.081Z,64.14
2022-10-02T13:06:20.357Z,65.12
2022-10-02T13:09:57.536Z,66.07
2022-10-02T13:13:58.589Z,65.41
2022-10-02T13:17:56.048Z,65.58
2022-10-02T13:22:10.017Z,66.09
2022-10-02T13:26:13.500Z,66.41
2022-10-02T13:30:10.752Z,67.26
2022-10-02T13:33:50.290Z,68.08
2022-10-02T13:37:34.685Z,69.78
2022-10-02T13:41:16.841Z,68.62
2022-10-02T13:44:59.268Z,69.92
2022-10-02T13:49:02.370Z,71.08
2022-10-02T13:53:04.570Z,70.50
2022-10-02T13:57:05.622Z,71.64
2022-10-02T14:00:38.466Z,71.52
2022-10-02T14:04:20.708Z,72.33
2022-10-02T14:08:22.765Z,70.79
2022-10-02T14:12:47.967Z,70.35
2022-10-02T14:16:48.450Z,70.79
2022-10-02T14:20:38.061Z,70.48
2022-10-02T14:25:00.624Z,69.60
2022-10-02T14:28:45.807Z,68.69
2022-10-02T14:32:44.648Z,69.75
2022-10-02T14:36:42.674Z,70.25
2022-10-02T14:40:18.680Z,69.27
2022-10-02T14:44:09.344Z,69.96
2022-10-02T14:47:46.274Z,69.38
2022-10-02T14:51:26.794Z,69.07
2022-10-02T14:55:31.490Z,68.91
2022-10-02T14:59:15.904Z,69.79
2022-10-02T15:03:01.597Z,71.21
2022-10-02T15:06:56.448Z,70.91
2022-10-02T15:10:37.974Z,71.26
2022-10-02T15:14:27.435Z,72.13
2022-10-02T15:18:21.024Z,72.59
2022-10-02T15:22:28.443Z,73.25
2022-10-02T15:26:07.521Z,74.08
2022-10-02T15:30:18.507Z,75.38
2022-10-02T15:34:02.774Z,74.85
2022-10-02T15:38:02.188Z,75.73
2022-10-02T15:41:43.686Z,76.77
2022-10-02T15:45:24.460Z,78.13
2022-10-02T15:49:11.199Z,78.73
2022-10-02T15:52:54.169Z,77.82
2022-10-02T15:56:35.827Z,79.12
2022-10-02T16:00:22.595Z,79.16
2022-10-02T16:04:11.527Z,79.93
2022-10-02T16:08:25.258Z,81.65
2022-10-02T16:12:04.615Z,81.91
2022-10-02T16:15:49.961Z,81.95
2022-10-02T16:19:23.535Z,82.59
2022-10-02T16:23:22.834Z,82.76
2022-10-02T16:27:03.740Z,83.08
2022-10-02T16:30:59.780Z,82.99
2022-10-02T16:34:38.754Z,83.43
2022-10-02T16:38:36.955Z,83.98
2022-10-02T16:42:28.179Z,84.14
2022-10-02T16:46:16.484Z,85.35
2022-10-02T16:50:15.440Z,85.18
2022-10-02T16:53:55.666Z,85.78
2022-10-02T16:57:41.013Z,85.93
2022-10-02T17:01:26.462Z,86.63
2022-10-02T17:05:23.008Z,85.90
2022-10-02T17:09:06.299Z,86.74
2022-10-02T17:13:30.458Z,86.82
2022-10-02T17:17:12.250Z,87.20
2022-10-02T17:20:59.509Z,87.41
2022-10-02T17:25:05.384Z,87.51
2022-10-02T17:28:51.978Z,87.39
2022-10-02T17:32:41.603Z,87.01
2022-10-02T17:36:36.262Z,87.58
2022-10-02T17:40:08.946Z,87.70
2022-10-02T17:43:59.468Z,87.43
2022-10-02T17:47:46.429Z,87.89
2022-10-02T17:51:55.936Z,87.89
2022-10-02T17:56:26.867Z,87.48
2022-10-02T18:00:11.430Z,87.97
2022-10-02T18:04:36.365Z,88.31
2022-10-02T18:08:09.240Z,88.03
2022-10-02T18:12:14.612Z,88.24
2022-10-02T18:16:12.748Z,88.77
2022-10-02T18:20:13.746Z,89.25
2022-10-02T18:24:08.271Z,88.32
2022-10-02T18:27:59.086Z,89.66
2022-10-02T18:31:54.622Z,88.48
2022-10-02T18:35:32.176Z,89.01
2022-10-02T18:39:29.126Z,89.09
2022-10-02T18:43:47.700Z,89.39
2022-10-02T18:47:42.340Z,89.59
2022-10-02T18:51:20.679Z,89.28
2022-10-02T18:54:58.819Z,89.16
2022-10-02T18:58:57.610Z,89.69
2022-10-02T19:02:42.918Z,88.88
2022-10-02T19:06:18.042Z,89.56
2022-10-02T19:10:15.539Z,89.69
2022-10-02T19:13:49.107Z,89.85
2022-10-02T19:17:32.711Z,91.15
2022-10-02T19:21:19.507Z,90.42
2022-10-02T19:25:06.075Z,90.19
2022-10-02T19:28:47.394Z,90.42
2022-10-02T19:32:55.426Z,90.55
2022-10-02T19:36:30.454Z,90.82
2022-10-02T19:40:04.489Z,91.39
2022-10-02T19:43:59.515Z,90.98
2022-10-02T19:47:42.198Z,91.81
2022-10-02T19:51:22.496Z,92.33
2022-10-02T19:55:04.535Z,91.14
2022-10-02T19:58:44.621Z,91.22
2022-10-02T20:02:36.534Z,92.10
2022-10-02T20:06:19.849Z,92.09
2022-10-02T20:10:02.219Z,90.84
2022-10-02T20:13:50.307Z,91.12
2022-10-02T20:17:22.312Z,91.87
2022-10-02T20:21:06.658Z,91.92
2022-10-02T20:24:51.114Z,91.99
2022-10-02T20:28:37.553Z,92.36
2022-10-02T20:32:22.083Z,93.06
2022-10-02T20:36:04.429Z,93.11
2022-10-02T20:40:01.395Z,92.94
2022-10-02T20:43:45.060Z,92.73
2022-10-02T20:47:51.923Z,92.46
2022-10-02T20:51:52.335Z,91.55
2022-10-02T20:55:32.891Z,91.46
2022-10-02T20:59:32.522Z,92.24
2022-10-02T21:03:24.399Z,92.16
2022-10-02T21:07:40.657Z,92.07
2022-10-02T21:11:25.786Z,92.35
2022-10-02T21:15:14.096Z,92.69
2022-10-02T21:19:04.527Z,92.88
2022-10-02T21:22:58.962Z,93.32
2022-10-02T21:26:48.778Z,94.28
2022-10-02T21:30:34.476Z,94.76
2022-10-02T21:34:33.265Z,95.35
2022-10-02T21:38:32.767Z,95.60
2022-10-02T21:42:17.676Z,95.81
2022-10-02T21:46:22.997Z,95.91
2022-10-02T21:50:31.736Z,96.56
2022-10-02T21:54:47.750Z,96.95
2022-10-02T21:58:45.267Z,97.12
2022-10-02T22:02:41.965Z,97.05
2022-10-02T22:06:27.683Z,97.02
2022-10-02T22:10:03.867Z,95.96
2022-10-02T22:13:44.869Z,94.33
2022-10-02T22:17:34.299Z,93.97
2022-10-02T22:21:27.458Z,93.50
2022-10-02T22:25:14.075Z,93.02
2022-10-02T22:29:10.610Z,93.84
2022-10-02T22:33:13.208Z,92.80
2022-10-02T22:37:04.013Z,93.42
2022-10-02T22:40:48.332Z,93.52
2022-10-02T22:44:52.900Z,93.41
2022-10-02T22:48:44.264Z,93.10
2022-10-02T22:52:48.710Z,92.66
2022-10-02T22:56:43.347Z,92.94
2022-10-02T23:00:29.628Z,93.15
2022-10-02T23:03:56.133Z,92.86
2022-10-02T23:07:36.772Z,93.00
2022-10-02T23:11:10.174Z,93.25
2022-10-02T23:15:14.885Z,93.66
2022-10-02T23:18:56.652Z,93.67
2022-10-02T23:22:48.272Z,93.43
2022-10-02T23:26:39.405Z,92.79
2022-10-02T23:30:19.191Z,92.03
2022-10-02T23:34:14.982Z,91.40
2022-10-02T23:37:57.912Z,91.44
2022-10-02T23:41:40.738Z,91.61
2022-10-02T23:45:50.220Z,91.47
2022-10-02T23:49:31.618Z,91.29
2022-10-02T23:53:40.417Z,92.23
2022-10-02T23:57:29.984Z,92.25
